Henrique Cardoso

Scout - Rio Ave
4 Dec 2028
Monday
Process

Personality

Adaptability (19) Ambition (9) Controversy (11) Loyalty (2) Pressure (11) Professionalism (7) Sportsmanship (1) Temperament (16)

Profile

Coaching Style Democratic
License Continental Pro
Determination 9
Man Management 11
Motivating 9
Discipline 12
Job Satisfaction
45%
Fatigue
0%
Role Scout
Wage 23.9K p/w
Contract 14.03.2029

Performance

Behaviour Good
Training Effectiveness
21%
Player Development
35%
Injury Prevention
20%
Tactical Implementation
55%

Recent Events

Attended a recruitment meeting now
Attended a recruitment meeting now
Attended a recruitment meeting now
Recommended a transfer target now
Recommended a transfer target now
Recommended a transfer target 7d ago
Recommended a transfer target 7d ago
Recommended a transfer target 7d ago

Currently Monitoring

185
Player Club Status Ability Confidence Watched Last Observed Latest Vote
Sébastien Cibois Portimonense Report Ready 118 / 115 62% 1 10.07.2028 -
Dânio Djassi Portimonense Negotiating 123 / 130 62% 1 01.06.2028 -
Nicolò Moranduzzo Renate Active 95 / 100 40% 1 31.05.2028 -
Riquelme Thompson-Jones Accrington Stanley Active 105 / 118 40% 5 29.05.2028 -
Honest Ahanor Atalanta Active 142 / 138 40% 3 27.05.2028 -
Andrija Bulatović Chamois Niortais Active 127 / 129 40% 2 26.05.2028 -
Lucas Høgsberg RC Strasbourg Active 136 / 146 40% 2 25.05.2028 -
Andrea Cogoni Cosenza Active 114 / 115 40% 1 25.05.2028 -
Celías Ingenthron Platense Active 116 / 126 40% 1 24.05.2028 -
Thijs Kraaijeveld USM Alger Active 138 / 125 40% 2 23.05.2028 -
Giovanni Leoni Lincoln City Active 147 / 144 40% 2 22.05.2028 -
Amine Boukamir Charleroi Active 111 / 112 40% 4 21.05.2028 -
Bence Szakos Aris Active 100 / 101 40% 1 21.05.2028 -
Tyler Fletcher Rotherham United Active 111 / 115 40% 2 18.05.2028 -
Kamaldeen Atiemo Wa All Stars Active 95 / 103 40% 3 16.05.2028 -
Lamine Bèye Portimonense Active 110 / 117 40% 1 16.05.2028 -
Abubakar Adams Aduana Stars Active 83 / 87 40% 4 13.05.2028 -
Thato Sibiya Orlando Pirates Active 117 / 119 40% 1 13.05.2028 -
Kelian Le Pironnec Mirandés Active 89 / 104 40% 1 10.05.2028 -
Miguel Figueiredo Benfica Active 109 / 123 40% 2 06.05.2028 -
Olivier Leroux Mouscron Active 105 / 106 40% 3 02.05.2028 -
Josh Nichols Oldham Athletic Active 123 / 129 40% 2 02.05.2028 -
Denys Smetana Rukh Active 99 / 99 40% 1 29.04.2028 -
Augusto Bando Ascoli Active 111 / 118 40% 1 28.04.2028 -
Simone Suppa Virtus Verona Active 78 / 93 40% 2 24.04.2028 -
Ayden Heaven Portsmouth Active 148 / 148 40% 1 21.04.2028 -
Christos Mouzakitis Hull City Active 145 / 144 40% 3 19.04.2028 -
Kirill Kistenev Botev Vratsa Active 79 / 99 40% 1 17.04.2028 -
Josh Acheampong Everton Active 150 / 144 40% 1 15.04.2028 -
Kubrat Onasci Septemvri Active 111 / 103 40% 1 10.04.2028 -
Daniel Banjaqui Benfica Active 124 / 124 67% 2 09.04.2028 Approve
Federico Matarán Giana Erminio Active 106 / 113 40% 1 08.04.2028 -
Bernardo Lima Porto Active 114 / 118 40% 2 07.04.2028 -
Martim Cunha Porto Active 106 / 117 40% 1 03.04.2028 -
Mao Hosoya Santos Active 134 / 135 90% 1 01.01.2028 Approve
Toni Fruk Talleres Active 132 / 133 89% 1 01.01.2028 Approve
Gideon Manaseh Ikorodu City Active 91 / 106 40% 2 31.12.2027 -
Matias Siltanen Malmo FF Active 132 / 128 40% 2 10.12.2027 -
Nicolas Sport Recife Active 97 / 114 40% 2 10.12.2027 -
Onyeuche Ujunwa Ikorodu City Active 86 / 98 40% 1 09.12.2027 -
Trey Nyoni Rotherham United Active 137 / 140 40% 1 08.12.2027 -
Fabiano Epicentr Active 113 / 107 40% 1 03.12.2027 -
Gianluca Prestianni Benfica Active 136 / 137 40% 3 02.12.2027 -
Nicolás Barros Schelotto Gimnasia La Plata Active 127 / 130 40% 1 02.12.2027 -
Rafael Moreno Atletico Venezuela Active 107 / 110 40% 3 01.12.2027 -
Siyabonga Mabena Bidvest Wits Active 120 / 119 40% 1 01.12.2027 -
Christ Wawa Gefle Active 110 / 105 40% 1 30.11.2027 -
David Eke Enyimba Active 83 / 91 40% 1 30.11.2027 -
Matías Arias Vélez Active 108 / 122 40% 2 29.11.2027 -
Ruben Ramos LA Galaxy Active 106 / 107 40% 3 29.11.2027 -
Emmanuel Ndubueze Shooting Stars Active 90 / 95 40% 2 26.11.2027 -
Chimobi Igwilo Rangers International Active 99 / 101 40% 1 26.11.2027 -
Dylan Cabral Arsenal Active 94 / 108 40% 2 23.11.2027 -
Alex Amaefula Kun Khalifat Active 82 / 78 40% 1 23.11.2027 -
Jeremías Merlo Gimnasia La Plata Active 120 / 127 40% 2 19.11.2027 -
Idris Ajiya Nasarawa United Active 93 / 87 40% 2 17.11.2027 -
Francisco Triver River Plate Active 93 / 100 40% 2 16.11.2027 -
Alex Verón Vélez Active 110 / 122 40% 1 16.11.2027 -
Nupe Godstime Bayelsa United Active 98 / 85 40% 2 15.11.2027 -
Valentino Acuña Newell's Old Boys Active 105 / 116 40% 1 05.11.2027 -
Beto 12 de Octubre Active 93 / 89 40% 1 19.07.2027 -
Sindre Walle Egeli Udinese Active 125 / 137 40% 2 06.07.2027 -
Víctor Guzmán Sporting CP Active 96 / 100 40% 1 06.07.2027 -
Miguel Campos Oliveirense Active 110 / 104 58% 1 07.06.2027 -
Pedro de la Vega Columbus Crew Active 133 / 134 66% 1 01.06.2027 Approve
Caleb Yirenkyi Coventry City Active 140 / 141 40% 2 31.05.2027 -
Godwin Oham Warri Wolves Active 81 / 87 40% 1 31.05.2027 -
Lewis Gibson Preston Active 121 / 132 40% 1 30.05.2027 -
Junior Tchamadeu Stoke City Active 118 / 124 40% 1 28.05.2027 -
Will Fish Cardiff City Active 119 / 116 40% 1 27.05.2027 -
Olívio Tomé Benfica Active 119 / 117 40% 1 27.05.2027 -
Brooke Norton-Cuffy Hull City Active 132 / 144 40% 3 25.05.2027 -
Adam Randell Bristol City Active 131 / 125 40% 1 25.05.2027 -
Max Johnston Derby County Active 119 / 124 40% 3 24.05.2027 -
Mats Wieffer Brighton Active 142 / 148 40% 2 24.05.2027 -
Ousmane Diomande Nottingham Forest Active 156 / 149 40% 1 22.05.2027 -
Habib Diarra Sunderland Active 145 / 144 40% 1 22.05.2027 -
Bosun Lawal Stoke City Active 122 / 127 40% 2 21.05.2027 -
Alex Scott Bournemouth Active 155 / 148 40% 4 20.05.2027 -
Jacques Ekomié Wrexham Active 130 / 124 40% 2 19.05.2027 -
Ronnie Edwards Queens Park Rangers Active 136 / 129 40% 1 19.05.2027 -
Jan Bürger Northampton Town Active 102 / 120 40% 1 19.05.2027 -
Jonathan Varane Queens Park Rangers Active 126 / 127 40% 1 17.05.2027 -
Oliver Skipp Leicester City Active 141 / 136 40% 1 17.05.2027 -
Alfie Gilchrist West Bromwich Albion Active 123 / 133 40% 2 16.05.2027 -
Alfie Doughty Millwall Active 127 / 123 40% 4 16.05.2027 -
Nathan Collins Brentford Active 154 / 141 40% 3 15.05.2027 -
Alfie Devine Preston Active 113 / 124 40% 1 15.05.2027 -
Aidan Morris Middlesbrough Active 137 / 132 40% 2 14.05.2027 -
Jack Currie Oxford United Active 118 / 120 40% 2 13.05.2027 -
Othmane Maamma Watford Active 134 / 126 40% 1 13.05.2027 -
Mohamadou Kanté Crawley Town Active 118 / 116 40% 2 12.05.2027 -
Monty Batlhabane Polokwane City Active 97 / 94 40% 1 12.05.2027 -
João Abreu Porto Active 102 / 102 40% 1 11.05.2027 -
Kirill Glebov CSKA Moscow Active 123 / 128 40% 1 11.05.2027 -
Ethan Pye Stockport County Active 125 / 123 40% 1 09.05.2027 -
Mateus Mané Burnley Active 126 / 147 40% 2 07.05.2027 -
Stevan Manuel Benfica Active 90 / 114 40% 1 07.05.2027 -
Lander Astiazarán Real Sociedad Active 101 / 116 40% 1 06.05.2027 -
Pelle Mattsson Norwich City Active 133 / 129 40% 3 05.05.2027 -
Nestory Irankunda Watford Active 115 / 126 40% 1 03.05.2027 -
Bazoumana Touré Newcastle United Active 141 / 137 40% 1 03.05.2027 -
Raoul Bellanova Atalanta Active 156 / 142 40% 1 01.05.2027 -
Tariq Lamptey Queens Park Rangers Active 142 / 131 40% 1 01.05.2027 -
Rafael Camacho Sporting CP Active 103 / 104 40% 1 30.04.2027 -
Lovro Zvonarek Estrela da Amadora Active 121 / 127 40% 1 29.04.2027 -
Welington Southampton Active 138 / 124 40% 2 28.04.2027 -
Brian De Keersmaecker Oxford United Active 114 / 120 40% 1 28.04.2027 -
Toby Collyer West Bromwich Albion Active 125 / 130 40% 2 27.04.2027 -
Adam Wharton Crystal Palace Active 142 / 152 40% 1 25.04.2027 -
Jacob Greaves Ipswich Town Active 138 / 134 40% 2 24.04.2027 -
Taichi Fukui Arouca Active 119 / 131 40% 1 24.04.2027 -
João Mendes Vitoria Guimaraes Active 124 / 121 40% 1 20.04.2027 -
André Wolverhampton Active 147 / 138 40% 2 19.04.2027 -
Lucas Da Cunha Como Active 144 / 150 40% 1 19.04.2027 -
Iseppe Nacional Active 98 / 115 40% 1 19.04.2027 -
Ethan Williams Peterborough United Active 107 / 123 40% 1 19.04.2027 -
David Sousa Casa Pia Active 126 / 120 40% 1 17.04.2027 -
Víctor Gómez Braga Active 133 / 142 40% 4 16.04.2027 Monitor
Leandro Martins Benfica Active 90 / 92 40% 1 16.04.2027 -
Nana Nuhu WAFA Active 98 / 102 40% 1 16.04.2027 -
Aaron Hickey Brentford Active 143 / 139 40% 1 14.04.2027 -
Vitinho Botafogo Active 134 / 138 40% 1 09.04.2027 -
Bright Arrey-Mbi Braga Active 138 / 134 40% 3 08.04.2027 -
Markus Jensen Nacional Active 118 / 110 40% 1 05.04.2027 -
Dinis Pinto Moreirense Active 123 / 130 40% 1 02.04.2027 -
Lee Buchanan Sheffield Wednesday Active 119 / 114 40% 1 01.04.2027 -
Max Bird Birmingham Active 130 / 127 40% 1 29.03.2027 -
Hugo Pérez Torreense Active 115 / 122 40% 2 28.03.2027 -
Juan María Alcedo Torreense Active 130 / 124 40% 1 24.03.2027 -
Lewis Ferguson Bologna Active 143 / 137 40% 1 22.03.2027 -
Ryan Sessegnon Fulham Active 141 / 146 40% 1 22.03.2027 -
Luke McNally Bristol City Active 138 / 134 40% 2 19.03.2027 -
Shea Charles Southampton Active 128 / 143 40% 1 19.03.2027 -
Rodrigo Pinheiro Famalicao Active 133 / 128 40% 1 18.03.2027 -
Harry Clarke Preston Active 134 / 131 40% 1 17.03.2027 -
Facundo Cáseres Gil Vicente Active 112 / 125 40% 1 31.12.2026 -
Gabriel Gudmundsson Leeds United Active 139 / 146 40% 1 31.12.2026 -
Vinícius Lopes Santa Clara Active 130 / 127 40% 1 27.12.2026 -
Manu Pozo Torreense Active 130 / 127 40% 2 23.12.2026 -
Rafik Guitane Estoril Praia Active 139 / 136 40% 2 23.12.2026 -
Nico O'Reilly Manchester City Active 156 / 154 40% 3 21.12.2026 -
Giacomo Raspadori Atalanta Active 149 / 141 40% 1 20.12.2026 -
Tiago Freitas Benfica Active 118 / 118 40% 1 18.12.2026 -
Elliot Anderson Manchester City Active 147 / 148 40% 1 16.12.2026 -
Roberto Fernández Braga Active 152 / 148 40% 1 16.12.2026 Needs More Info
Yeremy Pino Crystal Palace Active 160 / 147 40% 1 14.12.2026 -
Simo Maritimo Active 112 / 109 40% 1 11.12.2026 -
Yassine Khalifi Charleroi Active 109 / 102 40% 1 11.12.2026 -
Petar Stanić Ludogorets Active 126 / 145 40% 1 09.12.2026 -
Ramiro Sordo Santos Laguna Active 121 / 117 40% 1 09.12.2026 -
Lorougnon Gohi Académico de Viseu Active 103 / 116 40% 1 04.12.2026 -
Tyrese Campbell Sheffield United Active 132 / 132 40% 1 01.12.2026 -
Amine Adli Bournemouth Active 151 / 148 40% 1 01.12.2026 -
Tyrhys Dolan Espanyol Active 128 / 141 40% 1 24.11.2026 -
Scott Twine Bristol City Active 116 / 117 40% 1 23.11.2026 -
Simphiwe Selepe Orlando Pirates Active 96 / 122 40% 1 17.11.2026 -
Noni Madueke Arsenal Active 162 / 156 40% 1 16.11.2026 -
Reuell Walters Luton Town Active 119 / 113 40% 1 13.11.2026 -
Soma Anzai FC Tokyo Active 131 / 129 40% 1 11.11.2026 -
Lee Hyun-Ju Arouca Active 125 / 130 40% 1 09.11.2026 -
Pedro Bravo FC Midtjylland Active 106 / 125 40% 1 07.11.2026 -
Yanis Begraoui Estoril Praia Active 140 / 138 40% 1 05.11.2026 -
Marcelo Allende Mamelodi Sundowns Active 137 / 129 40% 1 05.11.2026 -
Joe Gelhardt Hull City Active 126 / 127 40% 1 03.11.2026 -
Enzo Le Fée Sunderland Active 136 / 143 40% 1 03.11.2026 -
Sorriso Famalicao Active 127 / 128 40% 1 01.11.2026 -
Gustavo Silva Vitoria Guimaraes Active 113 / 131 40% 1 01.11.2026 -
Mason Mount Manchester United Active 161 / 158 40% 1 25.10.2026 -
Tadeo Allende Inter Miami CF Active 122 / 131 40% 1 24.10.2026 -
Joaquín Gho Argentinos Juniors Active 127 / 125 40% 1 23.10.2026 -
Pau Víctor Braga Active 128 / 144 40% 2 22.10.2026 -
Carlos Álvarez Club America Active 135 / 139 40% 1 22.10.2026 -
Mikkel Damsgaard Brentford Active 140 / 148 40% 1 21.10.2026 -
Telasco Segovia Inter Miami CF Active 138 / 132 40% 1 21.10.2026 -
Marcel Ruiz Crystal Palace Active 136 / 145 40% 1 20.10.2026 -
Santi García Gil Vicente Active 121 / 133 40% 1 19.10.2026 -
Alex Luna Instituto Active 121 / 134 40% 1 11.10.2026 -
David Da Costa Portland Timbers Active 137 / 136 40% 1 08.10.2026 -
Jordan van der Gaag Leiria Active 102 / 115 40% 1 08.10.2026 -
Valentín Aguiñagalde Temperley Active 106 / 117 40% 1 11.09.2026 -
João Peglow DC United Active 104 / 124 40% 1 07.09.2026 -
Antonio Napolitano Agropecuario Argentino Active 114 / 120 40% 1 07.09.2026 -
Mo Dauda Portimonense Active 97 / 108 58% 1 31.08.2026 -
Victor Froholdt Porto Active 151 / 165 40% 1 01.08.2026 -